Time;durP1;ratioP1;P1;durP2;ratioP2;P2;SDS_P1;SDS_P2;PMS_P1;PMS_P2;Temp;Humidity;BMP_temperature;BMP_pressure;BME280_temperature;BME280_humidity;BME280_pressure;Samples;Min_cycle;Max_cycle;Signal;HPM_P1;HPM_P2
2023/07/08 00:02:21;;;;;;;7.30;6.63;;;14.30;1.00;;;;;;5078198;28;20792;-73
2023/07/08 00:04:53;;;;;;;6.87;6.37;;;14.30;1.00;;;;;;5095813;28;20831;-70
2023/07/08 00:07:28;;;;;;;10.00;6.60;;;14.30;1.00;;;;;;5078471;28;20427;-71
2023/07/08 00:09:54;;;;;;;9.80;7.43;;;14.40;1.00;;;;;;5079385;28;20419;-72
2023/07/08 00:12:26;;;;;;;7.67;7.00;;;14.30;1.00;;;;;;5076417;28;20408;-72
2023/07/08 00:14:52;;;;;;;8.70;6.47;;;14.30;1.00;;;;;;5096694;28;20240;-69
2023/07/08 00:17:17;;;;;;;7.70;6.87;;;14.30;1.00;;;;;;5096686;28;20494;-72
2023/07/08 00:19:43;;;;;;;8.43;7.10;;;14.30;1.00;;;;;;5096487;28;20395;-70
2023/07/08 00:22:14;;;;;;;7.60;6.93;;;14.20;1.00;;;;;;5077210;28;20180;-71
2023/07/08 00:25:03;;;;;;;6.90;6.30;;;14.20;1.00;;;;;;5094989;28;20197;-73
2023/07/08 00:27:29;;;;;;;6.90;6.30;;;14.20;1.00;;;;;;5076636;28;20498;-71
2023/07/08 00:30:09;;;;;;;7.43;6.73;;;14.10;1.00;;;;;;5078032;28;20412;-71
2023/07/08 00:32:41;;;;;;;8.53;7.40;;;14.10;1.00;;;;;;5096450;28;20642;-74
2023/07/08 00:35:07;;;;;;;7.27;6.67;;;14.10;1.00;;;;;;5077971;28;20457;-73
2023/07/08 00:37:33;;;;;;;8.03;6.20;;;14.10;1.00;;;;;;5096159;28;20454;-71
2023/07/08 00:40:35;;;;;;;7.80;7.20;;;14.00;1.00;;;;;;5078409;28;20419;-73
2023/07/08 00:43:20;;;;;;;7.00;6.40;;;14.00;1.00;;;;;;5075907;28;20709;-70
2023/07/08 00:45:50;;;;;;;6.83;6.33;;;14.00;1.00;;;;;;5077883;28;20514;-70
2023/07/08 00:48:24;;;;;;;7.57;6.77;;;14.00;1.00;;;;;;5096009;28;20415;-70
2023/07/08 00:51:03;;;;;;;7.03;6.53;;;14.00;1.00;;;;;;5076951;28;20415;-74
2023/07/08 00:53:33;;;;;;;8.33;7.43;;;14.00;1.00;;;;;;5094868;28;20483;-72
2023/07/08 00:56:35;;;;;;;7.70;7.10;;;13.90;1.00;;;;;;5077773;28;20454;-70
2023/07/08 00:59:11;;;;;;;6.80;6.20;;;13.80;1.00;;;;;;5034763;28;20492;-73
2023/07/08 01:01:41;;;;;;;7.33;6.63;;;13.80;1.00;;;;;;5093849;28;20407;-70
2023/07/08 01:04:17;;;;;;;8.30;7.70;;;13.80;1.00;;;;;;5095368;28;20423;-70
2023/07/08 01:06:56;;;;;;;6.77;6.13;;;13.80;1.00;;;;;;5095641;28;20443;-73
2023/07/08 01:09:30;;;;;;;8.67;7.00;;;13.80;1.00;;;;;;5083185;28;20436;-73
2023/07/08 01:12:22;;;;;;;7.97;7.27;;;13.80;1.00;;;;;;5056677;28;20420;-73
2023/07/08 01:14:53;;;;;;;7.57;6.97;;;13.80;1.00;;;;;;5074779;28;20496;-69
2023/07/08 01:17:19;;;;;;;7.20;6.60;;;13.80;1.00;;;;;;5077102;28;20501;-69
2023/07/08 01:19:46;;;;;;;7.40;6.80;;;13.80;1.00;;;;;;5093368;28;20514;-71
2023/07/08 01:22:12;;;;;;;6.90;6.30;;;13.80;1.00;;;;;;5093757;28;20400;-70
2023/07/08 01:24:41;;;;;;;8.67;7.30;;;13.80;1.00;;;;;;5095403;28;20423;-70
2023/07/08 01:27:13;;;;;;;7.17;6.57;;;13.70;1.00;;;;;;5095423;28;20461;-69
2023/07/08 01:29:39;;;;;;;8.60;7.90;;;13.70;1.00;;;;;;5093689;28;20443;-73
2023/07/08 01:32:06;;;;;;;8.50;7.67;;;13.70;1.00;;;;;;5094454;28;20403;-72
2023/07/08 01:34:33;;;;;;;7.60;6.90;;;13.70;1.00;;;;;;5095248;28;20201;-72
2023/07/08 01:37:04;;;;;;;7.07;6.47;;;13.70;1.00;;;;;;5080528;28;20513;-70
2023/07/08 01:39:52;;;;;;;7.50;6.80;;;13.60;1.00;;;;;;5073910;28;20416;-72
2023/07/08 01:42:18;;;;;;;8.27;6.57;;;13.60;1.00;;;;;;5056069;28;20409;-70
2023/07/08 01:44:44;;;;;;;7.50;6.80;;;13.50;1.00;;;;;;5090826;28;21016;-72
2023/07/08 01:47:31;;;;;;;13.13;6.30;;;13.40;1.00;;;;;;5094908;28;20403;-69
2023/07/08 01:49:56;;;;;;;7.47;6.83;;;13.40;1.00;;;;;;5074722;28;20416;-73
2023/07/08 01:52:22;;;;;;;7.47;6.83;;;13.40;1.00;;;;;;5074051;28;20549;-73
2023/07/08 01:54:55;;;;;;;8.33;6.27;;;13.40;1.00;;;;;;5074526;28;20423;-73
2023/07/08 01:57:21;;;;;;;6.00;5.60;;;13.40;1.00;;;;;;5073695;28;20452;-71
2023/07/08 01:59:50;;;;;;;6.47;5.97;;;13.40;1.00;;;;;;5088209;28;20442;-71
2023/07/08 02:02:15;;;;;;;6.73;6.23;;;13.40;1.00;;;;;;5087971;28;20181;-71
2023/07/08 02:04:41;;;;;;;7.27;6.77;;;13.40;1.00;;;;;;5074055;28;20448;-69
2023/07/08 02:07:07;;;;;;;8.30;7.70;;;13.40;1.00;;;;;;5074436;28;20405;-72
2023/07/08 02:09:33;;;;;;;8.17;7.40;;;13.40;1.00;;;;;;5086989;28;20473;-70
2023/07/08 02:11:59;;;;;;;9.20;6.83;;;13.40;1.00;;;;;;5093571;28;20407;-73
2023/07/08 02:14:26;;;;;;;6.47;6.00;;;13.30;1.00;;;;;;5090528;28;20201;-69
2023/07/08 02:16:52;;;;;;;8.00;7.30;;;13.30;1.00;;;;;;5093641;28;20219;-72
2023/07/08 02:19:19;;;;;;;8.17;7.10;;;13.20;1.00;;;;;;5112519;28;20414;-71
2023/07/08 02:21:45;;;;;;;8.20;7.50;;;13.10;1.00;;;;;;5113760;28;20487;-73
2023/07/08 02:24:11;;;;;;;8.90;8.00;;;13.10;1.00;;;;;;5080204;28;20538;-69
2023/07/08 02:26:36;;;;;;;7.80;7.20;;;13.10;1.00;;;;;;5074238;28;20598;-72
2023/07/08 02:29:02;;;;;;;8.40;7.63;;;13.10;1.00;;;;;;5073992;28;20181;-69
2023/07/08 02:31:28;;;;;;;7.30;6.70;;;13.00;1.00;;;;;;5072931;28;20478;-69
2023/07/08 02:33:54;;;;;;;8.20;7.40;;;13.00;1.00;;;;;;5073021;28;20189;-73
2023/07/08 02:36:20;;;;;;;7.77;7.17;;;13.10;1.00;;;;;;5073683;28;20197;-72
2023/07/08 02:38:46;;;;;;;8.27;7.57;;;13.10;1.00;;;;;;5072382;28;20429;-69
2023/07/08 02:41:12;;;;;;;8.43;7.73;;;13.10;1.00;;;;;;5072467;28;20876;-69
2023/07/08 02:43:39;;;;;;;8.07;7.37;;;13.10;1.00;;;;;;5074797;28;20497;-73
2023/07/08 02:46:05;;;;;;;7.73;7.20;;;13.10;1.00;;;;;;5092539;28;20170;-71
2023/07/08 02:48:31;;;;;;;7.73;7.03;;;13.10;1.00;;;;;;5099421;28;20554;-72
2023/07/08 02:51:01;;;;;;;12.47;6.97;;;13.10;1.00;;;;;;5071881;28;20954;-69
2023/07/08 02:53:28;;;;;;;7.63;6.83;;;13.10;1.00;;;;;;5073835;28;20438;-69
2023/07/08 02:55:54;;;;;;;6.83;6.33;;;13.10;1.00;;;;;;5073491;28;20574;-69
2023/07/08 02:58:19;;;;;;;7.97;7.20;;;13.10;1.00;;;;;;5083012;28;20859;-70
2023/07/08 03:00:45;;;;;;;8.30;7.70;;;13.10;1.00;;;;;;5092569;28;20176;-71
2023/07/08 03:03:11;;;;;;;8.70;7.07;;;13.10;1.00;;;;;;5093703;28;20621;-73
2023/07/08 03:05:37;;;;;;;7.20;6.63;;;13.10;1.00;;;;;;5093564;28;20173;-71
2023/07/08 03:08:02;;;;;;;10.50;7.10;;;13.10;1.00;;;;;;5091430;28;20166;-72
2023/07/08 03:10:28;;;;;;;7.77;7.17;;;13.10;1.00;;;;;;5071764;28;20291;-69
2023/07/08 03:12:54;;;;;;;7.80;7.00;;;13.10;1.00;;;;;;5083966;28;20576;-73
2023/07/08 03:15:20;;;;;;;7.30;6.60;;;13.00;1.00;;;;;;5091380;28;20418;-70
2023/07/08 03:17:46;;;;;;;6.73;6.13;;;13.00;1.00;;;;;;5098913;28;20197;-71
2023/07/08 03:20:12;;;;;;;7.67;6.97;;;12.90;1.00;;;;;;5112769;28;20414;-71
2023/07/08 03:22:38;;;;;;;7.70;7.00;;;13.00;1.00;;;;;;5112423;28;20776;-72
2023/07/08 03:25:04;;;;;;;7.20;6.50;;;13.00;1.00;;;;;;5111503;28;20462;-69
2023/07/08 03:27:30;;;;;;;7.50;6.83;;;13.00;1.00;;;;;;5095756;28;20500;-73
2023/07/08 03:29:56;;;;;;;7.63;6.93;;;13.00;1.00;;;;;;5091677;28;20506;-69
2023/07/08 03:32:22;;;;;;;7.07;6.30;;;13.00;1.00;;;;;;5092511;28;20170;-69
2023/07/08 03:34:48;;;;;;;6.83;6.23;;;13.00;1.00;;;;;;5092498;28;20582;-69
2023/07/08 03:37:13;;;;;;;7.97;7.27;;;13.00;1.00;;;;;;5092946;28;20891;-71
2023/07/08 03:40:17;;;;;;;7.70;7.20;;;13.00;1.00;;;;;;5078308;28;20186;-73
2023/07/08 03:42:42;;;;;;;8.00;7.20;;;13.00;1.00;;;;;;5072638;28;20459;-73
2023/07/08 03:45:09;;;;;;;8.20;6.07;;;13.00;1.00;;;;;;5072110;28;20794;-69
2023/07/08 03:47:35;;;;;;;7.90;7.20;;;13.00;1.00;;;;;;5080954;28;20183;-73
2023/07/08 03:50:01;;;;;;;7.23;6.60;;;13.10;1.00;;;;;;5113211;28;20879;-73
2023/07/08 03:52:27;;;;;;;7.80;7.00;;;13.10;1.00;;;;;;5112399;28;20418;-70
2023/07/08 03:54:53;;;;;;;7.47;6.77;;;13.10;1.00;;;;;;5091387;28;20939;-73
2023/07/08 03:57:19;;;;;;;7.77;7.17;;;13.10;1.00;;;;;;5087878;28;21013;-69
2023/07/08 03:59:45;;;;;;;7.47;6.90;;;13.10;1.00;;;;;;5091760;28;20379;-73
2023/07/08 04:02:11;;;;;;;8.07;7.13;;;13.20;1.00;;;;;;5070757;28;20776;-71
2023/07/08 04:04:38;;;;;;;7.57;6.97;;;13.20;1.00;;;;;;5072619;28;20221;-70
2023/07/08 04:07:05;;;;;;;7.20;6.60;;;13.20;1.00;;;;;;5072540;28;20400;-73
2023/07/08 04:09:31;;;;;;;6.90;6.30;;;13.30;1.00;;;;;;5084525;28;20439;-71
2023/07/08 04:11:58;;;;;;;7.87;7.20;;;13.30;1.00;;;;;;5089859;28;20846;-73
2023/07/08 04:14:24;;;;;;;8.20;7.60;;;13.30;1.00;;;;;;5092497;28;20518;-69
2023/07/08 04:16:57;;;;;;;7.73;6.83;;;13.30;1.00;;;;;;5092543;28;20534;-73
2023/07/08 04:19:23;;;;;;;6.80;6.23;;;13.40;1.00;;;;;;5111154;28;20407;-71
2023/07/08 04:21:53;;;;;;;10.13;6.30;;;13.40;1.00;;;;;;5073053;28;20443;-73
2023/07/08 04:24:19;;;;;;;7.00;6.50;;;13.50;1.00;;;;;;5071320;28;20428;-69
2023/07/08 04:26:48;;;;;;;6.93;6.43;;;13.50;1.00;;;;;;5078423;28;20450;-70
2023/07/08 04:29:16;;;;;;;5.70;5.30;;;13.50;1.00;;;;;;5092046;28;20911;-70
2023/07/08 04:31:42;;;;;;;8.20;6.50;;;13.60;1.00;;;;;;5091665;28;20414;-72
2023/07/08 04:34:09;;;;;;;6.53;5.90;;;13.60;1.00;;;;;;5092331;28;20451;-72
2023/07/08 04:36:36;;;;;;;6.43;5.93;;;13.70;1.00;;;;;;5087880;28;20517;-72
2023/07/08 04:39:04;;;;;;;6.20;5.80;;;13.70;1.00;;;;;;5072055;28;20982;-72
2023/07/08 04:41:30;;;;;;;7.47;6.53;;;13.80;1.00;;;;;;5076592;28;20928;-72
2023/07/08 04:43:57;;;;;;;6.47;5.97;;;13.80;1.00;;;;;;5096129;28;20494;-72
2023/07/08 04:46:44;;;;;;;8.00;7.30;;;13.90;1.00;;;;;;5088469;28;20957;-70
2023/07/08 04:49:11;;;;;;;5.70;5.40;;;14.00;1.00;;;;;;5110818;28;20396;-71
2023/07/08 04:51:38;;;;;;;8.10;7.40;;;14.00;1.00;;;;;;5115626;28;20382;-70
2023/07/08 04:54:05;;;;;;;5.37;5.03;;;14.10;1.00;;;;;;5104182;28;20462;-73
2023/07/08 04:56:49;;;;;;;5.83;5.43;;;14.20;1.00;;;;;;5094336;28;20854;-70
2023/07/08 04:59:19;;;;;;;6.00;5.60;;;14.20;1.00;;;;;;5095791;28;20439;-69
2023/07/08 05:01:45;;;;;;;5.57;5.07;;;14.30;3.20;;;;;;5095035;28;20936;-73
2023/07/08 05:04:16;;;;;;;6.87;6.20;;;14.30;10.10;;;;;;5095099;28;20823;-73
2023/07/08 05:06:42;;;;;;;6.63;5.83;;;14.40;16.50;;;;;;5095907;28;20432;-72
2023/07/08 05:09:08;;;;;;;6.57;6.07;;;14.50;21.60;;;;;;5085324;28;20412;-70
2023/07/08 05:11:34;;;;;;;6.77;6.27;;;14.50;27.70;;;;;;5072625;28;20628;-70
2023/07/08 05:14:01;;;;;;;6.03;5.60;;;14.60;36.20;;;;;;5074634;28;20566;-73
2023/07/08 05:16:27;;;;;;;7.07;5.77;;;14.60;44.50;;;;;;5075356;28;20535;-70
2023/07/08 05:18:53;;;;;;;7.00;6.40;;;14.70;54.30;;;;;;5105175;28;20880;-69
2023/07/08 05:21:20;;;;;;;6.30;5.60;;;14.80;62.40;;;;;;5114768;28;20424;-69
2023/07/08 05:23:49;;;;;;;7.10;5.37;;;14.80;68.40;;;;;;5114457;28;21201;-70
2023/07/08 05:26:15;;;;;;;7.43;5.37;;;14.90;75.40;;;;;;5098830;28;20438;-69
2023/07/08 05:28:53;;;;;;;6.13;5.60;;;15.00;85.00;;;;;;5094545;28;20447;-71
2023/07/08 05:31:18;;;;;;;5.43;5.03;;;15.10;93.90;;;;;;5094501;28;20495;-69
2023/07/08 05:33:44;;;;;;;6.17;5.63;;;15.10;93.90;;;;;;5095151;28;20507;-70
2023/07/08 05:36:10;;;;;;;5.80;5.23;;;15.20;93.90;;;;;;5093925;28;20201;-72
2023/07/08 05:38:36;;;;;;;5.27;4.90;;;15.30;94.00;;;;;;5087596;28;20171;-69
2023/07/08 05:41:02;;;;;;;5.93;5.50;;;15.40;94.00;;;;;;5087038;28;20427;-70
2023/07/08 05:43:28;;;;;;;6.00;5.50;;;15.40;98.40;;;;;;5092036;28;20443;-70
2023/07/08 05:46:06;;;;;;;6.47;5.97;;;15.50;99.90;;;;;;5092037;28;20403;-73
2023/07/08 05:48:34;;;;;;;6.70;6.10;;;15.60;99.90;;;;;;5098976;28;20430;-69
2023/07/08 05:51:00;;;;;;;7.23;6.63;;;15.70;99.90;;;;;;5111281;28;20479;-69
2023/07/08 05:53:29;;;;;;;9.87;6.97;;;15.80;99.90;;;;;;5113740;28;20923;-73
2023/07/08 05:56:37;;;;;;;7.60;6.70;;;15.90;99.90;;;;;;5090806;28;20467;-73
2023/07/08 05:59:12;;;;;;;6.97;6.40;;;16.10;94.30;;;;;;5073124;28;20417;-73
2023/07/08 06:01:38;;;;;;;7.50;6.90;;;16.30;82.50;;;;;;5072566;28;21028;-73
2023/07/08 06:04:04;;;;;;;11.50;6.20;;;16.50;64.40;;;;;;5072601;28;20456;-73
2023/07/08 06:06:30;;;;;;;6.93;6.33;;;16.70;22.30;;;;;;5073537;28;20517;-73
2023/07/08 06:09:28;;;;;;;9.00;5.90;;;16.80;1.00;;;;;;5073278;28;20419;-70
2023/07/08 06:15:43;;;;;;;7.67;5.40;;;17.10;1.00;;;;;;5050301;28;21045;-68
2023/07/08 06:18:17;;;;;;;6.07;5.53;;;17.40;1.00;;;;;;5050826;28;20478;-70
2023/07/08 06:21:01;;;;;;;6.50;5.50;;;17.50;1.00;;;;;;5050144;28;20411;-69
2023/07/08 06:23:28;;;;;;;6.00;5.50;;;17.70;1.00;;;;;;5076840;28;20450;-67
2023/07/08 06:25:54;;;;;;;8.90;5.00;;;17.90;1.00;;;;;;5091817;28;20427;-69
2023/07/08 06:28:20;;;;;;;4.60;4.20;;;18.00;1.00;;;;;;5091776;28;20406;-69
2023/07/08 06:30:47;;;;;;;6.23;5.00;;;18.10;1.00;;;;;;5092247;28;20900;-67
2023/07/08 06:33:16;;;;;;;4.43;4.13;;;18.30;1.00;;;;;;5091620;28;20975;-68
2023/07/08 06:35:45;;;;;;;6.20;5.07;;;18.40;1.00;;;;;;5033932;28;1655908;-69
2023/07/08 06:38:11;;;;;;;4.60;4.20;;;18.40;1.00;;;;;;5089859;28;20234;-69
2023/07/08 06:40:43;;;;;;;4.93;4.07;;;18.50;1.00;;;;;;5079339;28;20438;-69
2023/07/08 06:43:09;;;;;;;6.27;4.70;;;18.60;1.00;;;;;;5092993;28;20396;-66
2023/07/08 06:45:45;;;;;;;4.97;4.57;;;18.80;1.00;;;;;;5092830;28;20412;-68
2023/07/08 06:48:11;;;;;;;7.33;4.23;;;18.90;1.00;;;;;;5102856;28;20414;-70
2023/07/08 06:51:07;;;;;;;4.93;4.20;;;19.00;1.00;;;;;;5109354;28;20471;-69
2023/07/08 06:53:33;;;;;;;9.40;5.00;;;19.10;1.00;;;;;;5071305;28;20459;-69
2023/07/08 06:55:59;;;;;;;4.73;4.43;;;19.10;1.00;;;;;;5074057;28;20460;-66
2023/07/08 06:58:25;;;;;;;7.93;4.67;;;19.20;1.00;;;;;;5072709;28;20489;-69
2023/07/08 07:04:25;;;;;;;5.53;4.17;;;19.50;1.00;;;;;;5092013;28;20283;-69
2023/07/08 07:06:51;;;;;;;5.17;3.90;;;19.70;1.00;;;;;;5093507;28;20406;-66
2023/07/08 07:09:17;;;;;;;4.80;4.30;;;19.70;1.00;;;;;;5081916;28;20412;-69
2023/07/08 07:11:43;;;;;;;6.97;4.53;;;19.90;99.90;;;;;;5080850;28;20435;-70
2023/07/08 07:14:09;;;;;;;4.37;3.97;;;19.90;99.90;;;;;;5072207;28;20420;-68
2023/07/08 07:16:35;;;;;;;4.23;3.93;;;20.00;99.90;;;;;;5073010;28;20452;-70
2023/07/08 07:19:01;;;;;;;6.87;4.43;;;20.10;99.90;;;;;;5098834;28;20920;-72
2023/07/08 07:21:28;;;;;;;5.30;4.40;;;20.30;99.90;;;;;;5092118;28;20456;-69
2023/07/08 07:23:54;;;;;;;6.10;4.10;;;20.30;99.90;;;;;;5093066;28;20456;-69
2023/07/08 07:26:20;;;;;;;4.80;4.40;;;20.40;99.90;;;;;;5091545;28;20436;-70
2023/07/08 07:28:46;;;;;;;7.40;4.80;;;20.50;99.90;;;;;;5093126;28;20408;-72
2023/07/08 07:31:12;;;;;;;5.93;4.20;;;20.60;99.90;;;;;;5090051;28;20454;-74
2023/07/08 07:33:38;;;;;;;5.70;5.10;;;20.80;99.90;;;;;;5092694;28;20427;-72
2023/07/08 07:36:05;;;;;;;5.67;4.60;;;20.90;99.90;;;;;;5092281;28;20489;-74
2023/07/08 07:38:33;;;;;;;4.60;4.20;;;21.00;99.90;;;;;;5087956;28;20533;-69
2023/07/08 07:41:04;;;;;;;7.00;4.80;;;21.10;99.90;;;;;;5078191;28;20443;-75
2023/07/08 07:43:30;;;;;;;4.40;4.00;;;21.20;99.90;;;;;;5092716;28;20419;-75
2023/07/08 07:45:56;;;;;;;6.17;4.27;;;21.20;99.90;;;;;;5093214;28;20473;-70
2023/07/08 07:48:24;;;;;;;5.70;4.40;;;21.30;99.90;;;;;;5103645;28;20444;-69
2023/07/08 07:50:52;;;;;;;5.33;4.50;;;21.40;99.90;;;;;;5112295;28;20422;-72
2023/07/08 07:53:18;;;;;;;4.90;4.40;;;21.40;99.90;;;;;;5112770;28;20419;-71
2023/07/08 07:55:44;;;;;;;4.50;3.87;;;21.50;99.90;;;;;;5090030;28;20440;-74
2023/07/08 07:58:11;;;;;;;4.67;4.27;;;21.50;99.90;;;;;;5072066;28;20166;-72
2023/07/08 08:00:38;;;;;;;6.63;4.00;;;21.60;99.90;;;;;;5089490;28;20467;-75
2023/07/08 08:03:04;;;;;;;4.20;3.70;;;21.70;99.90;;;;;;5092884;28;20486;-69
2023/07/08 08:05:30;;;;;;;3.57;3.27;;;21.80;99.90;;;;;;5092937;28;20403;-75
2023/07/08 08:07:56;;;;;;;4.30;3.80;;;21.90;99.90;;;;;;5092626;28;20415;-72
2023/07/08 08:10:36;;;;;;;4.67;3.50;;;22.00;99.90;;;;;;5073243;28;20466;-72
2023/07/08 08:13:02;;;;;;;4.10;3.67;;;22.10;99.90;;;;;;5071776;28;20442;-73
2023/07/08 08:15:29;;;;;;;3.70;3.40;;;22.20;99.90;;;;;;5074253;28;20979;-72
2023/07/08 08:17:55;;;;;;;4.83;3.40;;;22.30;99.90;;;;;;5090165;28;20453;-69
2023/07/08 08:20:23;;;;;;;3.67;3.30;;;22.40;99.90;;;;;;5116321;28;21031;-69
2023/07/08 08:22:50;;;;;;;3.80;3.43;;;22.40;99.90;;;;;;5117033;28;20422;-68
2023/07/08 08:25:18;;;;;;;4.20;3.80;;;22.60;99.90;;;;;;5101757;28;20491;-71
2023/07/08 08:27:45;;;;;;;5.80;3.73;;;22.70;99.90;;;;;;5075833;28;20401;-75
2023/07/08 08:30:11;;;;;;;4.07;3.57;;;22.80;99.90;;;;;;5074478;28;20416;-74
2023/07/08 08:32:37;;;;;;;3.70;3.40;;;22.90;99.90;;;;;;5076298;28;20412;-72
2023/07/08 08:35:04;;;;;;;4.77;3.87;;;22.90;99.90;;;;;;5076028;28;20459;-69
2023/07/08 08:37:30;;;;;;;5.70;3.77;;;23.00;99.90;;;;;;5075959;28;20602;-73
2023/07/08 08:39:56;;;;;;;6.00;3.90;;;23.10;99.90;;;;;;5081797;28;20518;-74
2023/07/08 08:42:39;;;;;;;7.10;3.57;;;23.20;99.90;;;;;;5095092;28;20257;-75
2023/07/08 08:45:10;;;;;;;4.63;4.23;;;23.30;99.90;;;;;;5096010;28;20431;-75
2023/07/08 08:47:49;;;;;;;3.67;3.30;;;23.40;99.90;;;;;;5100483;28;20505;-71
2023/07/08 08:50:43;;;;;;;5.53;3.60;;;23.60;99.90;;;;;;5114834;28;20406;-70
2023/07/08 08:53:14;;;;;;;4.37;3.37;;;23.70;99.90;;;;;;5109813;28;20785;-74
2023/07/08 08:55:42;;;;;;;6.63;3.90;;;23.80;99.90;;;;;;5085928;28;20440;-71
2023/07/08 08:58:29;;;;;;;4.20;3.80;;;23.90;99.90;;;;;;5075611;28;20436;-71
2023/07/08 09:01:06;;;;;;;3.93;3.50;;;24.10;99.90;;;;;;5074229;28;20785;-74
2023/07/08 09:03:50;;;;;;;4.03;3.60;;;24.20;99.90;;;;;;5075585;28;20434;-69
2023/07/08 09:06:29;;;;;;;7.33;3.60;;;24.40;99.90;;;;;;5075672;28;20411;-71
2023/07/08 09:09:00;;;;;;;4.13;3.50;;;24.60;99.90;;;;;;5078733;28;20471;-74
2023/07/08 09:11:51;;;;;;;4.60;4.20;;;24.80;99.90;;;;;;5076381;28;20960;-74
2023/07/08 09:14:27;;;;;;;4.20;3.80;;;25.10;99.90;;;;;;5075214;28;20432;-69
2023/07/08 09:17:06;;;;;;;3.77;3.27;;;25.00;99.90;;;;;;5075343;28;20504;-69
2023/07/08 09:19:38;;;;;;;3.93;3.53;;;25.10;99.90;;;;;;5074706;28;20483;-69
2023/07/08 09:22:18;;;;;;;4.03;3.70;;;25.20;99.90;;;;;;5089723;28;20431;-73
2023/07/08 09:25:27;;;;;;;5.17;3.83;;;25.20;99.90;;;;;;5075263;28;20431;-73
2023/07/08 09:27:53;;;;;;;6.10;4.17;;;25.10;99.90;;;;;;5074591;28;20424;-74
2023/07/08 09:30:22;;;;;;;9.47;4.37;;;25.10;99.90;;;;;;5074139;28;20400;-74
2023/07/08 09:32:51;;;;;;;3.93;3.10;;;25.20;99.90;;;;;;5075124;28;20487;-70
2023/07/08 09:35:28;;;;;;;5.50;4.07;;;25.30;99.90;;;;;;5074934;28;20451;-64
2023/07/08 09:37:54;;;;;;;3.80;3.20;;;25.30;99.90;;;;;;5075095;28;20505;-74
2023/07/08 09:40:38;;;;;;;6.67;4.17;;;25.30;99.90;;;;;;5078856;28;20504;-73
2023/07/08 09:43:26;;;;;;;5.53;3.40;;;25.40;99.90;;;;;;5095087;28;20418;-69
2023/07/08 09:45:58;;;;;;;4.60;3.50;;;25.60;99.90;;;;;;5094494;28;20404;-69
2023/07/08 09:48:29;;;;;;;3.50;3.20;;;25.70;99.90;;;;;;5104597;28;20972;-71
2023/07/08 09:50:57;;;;;;;9.20;3.93;;;25.80;99.90;;;;;;5103280;28;20435;-70
2023/07/08 09:53:24;;;;;;;4.20;3.70;;;25.90;99.90;;;;;;5074645;28;20440;-72
2023/07/08 09:55:51;;;;;;;3.90;3.50;;;25.90;99.90;;;;;;5082038;28;20430;-69
2023/07/08 09:58:27;;;;;;;5.50;3.63;;;26.10;99.90;;;;;;5092239;28;20440;-72
2023/07/08 10:01:00;;;;;;;3.90;3.60;;;26.10;99.90;;;;;;5073201;28;20407;-73
2023/07/08 10:03:30;;;;;;;4.47;4.00;;;26.00;99.90;;;;;;5074072;28;20417;-69
2023/07/08 10:06:00;;;;;;;4.00;3.70;;;26.00;99.90;;;;;;5074525;28;20406;-69
2023/07/08 10:08:37;;;;;;;3.60;3.30;;;26.10;99.90;;;;;;5074310;28;20458;-71
2023/07/08 10:11:26;;;;;;;3.80;3.40;;;26.10;99.90;;;;;;5086736;28;20423;-69
2023/07/08 10:14:08;;;;;;;5.17;3.37;;;26.20;99.90;;;;;;5085399;28;20436;-72
2023/07/08 10:16:35;;;;;;;3.50;3.20;;;26.80;99.90;;;;;;5074088;28;20448;-69
2023/07/08 10:19:01;;;;;;;7.90;3.30;;;27.30;99.90;;;;;;5106412;28;20430;-68
2023/07/08 10:22:00;;;;;;;5.37;3.50;;;27.50;99.90;;;;;;5113065;28;20395;-68
2023/07/08 10:24:42;;;;;;;4.40;3.43;;;27.60;99.90;;;;;;5096952;28;20886;-68
2023/07/08 10:27:17;;;;;;;3.40;3.10;;;27.90;99.90;;;;;;5073992;28;20431;-69
2023/07/08 10:29:52;;;;;;;4.73;3.53;;;28.50;99.90;;;;;;5089314;28;20488;-74
2023/07/08 10:32:35;;;;;;;5.20;3.60;;;28.30;99.90;;;;;;5093032;28;20980;-69
2023/07/08 10:35:12;;;;;;;6.63;3.50;;;28.20;99.90;;;;;;5093762;28;20439;-69
2023/07/08 10:38:08;;;;;;;5.03;3.07;;;28.30;99.90;;;;;;5091967;28;20812;-69
2023/07/08 10:40:52;;;;;;;3.80;3.43;;;28.60;99.90;;;;;;5077401;28;20512;-69
2023/07/08 10:43:56;;;;;;;3.60;3.37;;;28.70;99.90;;;;;;5084123;28;20770;-69
2023/07/08 10:46:47;;;;;;;3.13;2.70;;;28.80;99.90;;;;;;5073649;28;20455;-73
2023/07/08 10:49:33;;;;;;;4.13;2.83;;;28.90;99.90;;;;;;5109094;28;20493;-73
2023/07/08 10:52:08;;;;;;;4.77;3.10;;;29.10;99.90;;;;;;5112755;28;20482;-74
2023/07/08 10:55:24;;;;;;;3.00;2.80;;;28.90;99.90;;;;;;5113330;28;20443;-71
2023/07/08 10:58:13;;;;;;;3.70;2.70;;;28.90;99.90;;;;;;5069593;28;20463;-74
2023/07/08 11:00:45;;;;;;;3.23;2.93;;;29.00;99.90;;;;;;5089726;28;20486;-69
2023/07/08 11:03:51;;;;;;;3.23;2.90;;;29.40;99.90;;;;;;5073357;28;20408;-75
2023/07/08 11:06:45;;;;;;;3.40;3.10;;;29.90;99.90;;;;;;5073162;28;20419;-70
2023/07/08 11:09:17;;;;;;;3.30;3.00;;;30.20;99.90;;;;;;5082589;28;20481;-70
2023/07/08 11:12:06;;;;;;;4.97;3.20;;;29.70;99.90;;;;;;5084927;28;20431;-74
2023/07/08 11:14:44;;;;;;;6.17;3.07;;;29.50;99.90;;;;;;5041366;28;20474;-69
2023/07/08 11:17:20;;;;;;;4.00;3.70;;;29.10;99.90;;;;;;5073523;28;20463;-71
2023/07/08 11:20:15;;;;;;;6.13;3.80;;;29.00;99.90;;;;;;5113713;28;20531;-69
2023/07/08 11:22:52;;;;;;;3.40;3.10;;;28.50;99.90;;;;;;5071688;28;20904;-69
2023/07/08 11:25:21;;;;;;;4.03;2.60;;;28.60;99.90;;;;;;5091722;28;20427;-73
2023/07/08 11:27:51;;;;;;;5.07;2.90;;;29.00;99.90;;;;;;5075083;28;20467;-69
2023/07/08 11:30:24;;;;;;;3.13;2.87;;;29.10;99.90;;;;;;5071898;28;20483;-69
2023/07/08 11:32:57;;;;;;;3.50;3.20;;;28.90;99.90;;;;;;5072760;28;20526;-74
2023/07/08 11:35:43;;;;;;;3.80;3.10;;;28.80;99.90;;;;;;5075970;28;20435;-74
2023/07/08 11:38:15;;;;;;;5.00;3.07;;;28.90;99.90;;;;;;5072894;28;20411;-74
2023/07/08 11:40:54;;;;;;;3.43;3.13;;;29.30;99.90;;;;;;5078299;28;20481;-71
2023/07/08 11:43:22;;;;;;;3.00;2.80;;;29.30;99.90;;;;;;5092990;28;20442;-75
2023/07/08 11:45:51;;;;;;;4.80;2.90;;;29.70;99.90;;;;;;5092374;28;20419;-71
2023/07/08 11:48:43;;;;;;;5.57;2.73;;;29.80;99.90;;;;;;5092853;28;20453;-73
2023/07/08 11:51:16;;;;;;;3.70;2.60;;;29.40;99.90;;;;;;5063264;28;20428;-70
2023/07/08 11:54:11;;;;;;;4.00;3.03;;;29.30;99.90;;;;;;5076393;28;20439;-72
2023/07/08 11:56:55;;;;;;;4.03;3.53;;;29.80;99.90;;;;;;5088951;28;20454;-75
2023/07/08 11:59:22;;;;;;;3.77;3.00;;;30.50;99.90;;;;;;5096988;28;20466;-70
2023/07/08 12:01:53;;;;;;;3.77;2.80;;;30.90;99.90;;;;;;5095975;28;20404;-75
2023/07/08 12:04:35;;;;;;;4.40;2.87;;;31.50;99.90;;;;;;5096446;28;20506;-73
2023/07/08 12:07:10;;;;;;;2.80;2.50;;;31.40;99.90;;;;;;5076174;28;20515;-72
2023/07/08 12:09:46;;;;;;;3.70;2.93;;;31.30;99.90;;;;;;5090087;28;20468;-77
2023/07/08 12:12:24;;;;;;;10.82;2.90;;;31.50;99.90;;;;;;5093610;28;20777;-73
2023/07/08 12:14:58;;;;;;;3.17;2.87;;;31.80;99.90;;;;;;5096601;28;20185;-69
2023/07/08 12:17:24;;;;;;;3.90;3.17;;;31.10;99.90;;;;;;5096340;28;20887;-70
2023/07/08 12:19:51;;;;;;;5.83;2.80;;;30.30;99.90;;;;;;5091840;28;20527;-70
2023/07/08 12:22:18;;;;;;;6.53;2.93;;;29.70;99.90;;;;;;5096883;28;20169;-69
2023/07/08 12:24:44;;;;;;;4.17;3.17;;;29.00;99.90;;;;;;5095221;28;20449;-75
2023/07/08 12:27:10;;;;;;;3.43;2.90;;;28.40;99.90;;;;;;5094853;28;20526;-75
2023/07/08 12:29:37;;;;;;;4.77;3.13;;;28.00;99.90;;;;;;5079760;28;20185;-74
2023/07/08 12:32:03;;;;;;;3.67;3.37;;;28.00;99.90;;;;;;5075430;28;20404;-71
2023/07/08 12:34:29;;;;;;;3.40;3.10;;;28.00;99.90;;;;;;5080473;28;20885;-74
2023/07/08 12:36:55;;;;;;;9.87;3.53;;;28.10;99.90;;;;;;5096356;28;20447;-69
2023/07/08 12:39:21;;;;;;;3.30;2.50;;;28.30;99.90;;;;;;5084219;28;20162;-75
2023/07/08 12:41:48;;;;;;;4.53;3.10;;;28.50;99.90;;;;;;5077836;28;20788;-72
2023/07/08 12:44:21;;;;;;;3.40;3.00;;;28.40;99.90;;;;;;5096099;28;20186;-74
2023/07/08 12:46:49;;;;;;;2.83;2.60;;;28.40;99.90;;;;;;5093564;28;20468;-72
2023/07/08 12:49:16;;;;;;;3.47;3.17;;;28.10;99.90;;;;;;5087845;28;20443;-75
2023/07/08 12:51:45;;;;;;;3.50;2.40;;;27.90;99.90;;;;;;5085881;28;20432;-69
2023/07/08 12:54:12;;;;;;;3.10;2.90;;;28.00;99.90;;;;;;5087833;28;20427;-72
2023/07/08 12:56:40;;;;;;;5.93;3.07;;;28.10;99.90;;;;;;5075755;28;20458;-70
2023/07/08 12:59:07;;;;;;;3.23;2.97;;;28.10;99.90;;;;;;5075592;28;20407;-74
2023/07/08 13:01:35;;;;;;;2.83;2.30;;;28.30;99.90;;;;;;5072486;28;20404;-68
2023/07/08 13:04:09;;;;;;;2.73;2.53;;;28.40;99.90;;;;;;5084842;28;20944;-74
2023/07/08 13:06:36;;;;;;;2.90;2.60;;;28.60;99.90;;;;;;5088983;28;20442;-69
2023/07/08 13:09:26;;;;;;;4.97;2.83;;;28.40;99.90;;;;;;5075347;28;20401;-74
2023/07/08 13:11:55;;;;;;;3.23;2.93;;;28.10;99.90;;;;;;5091917;28;20439;-69
2023/07/08 13:14:23;;;;;;;3.57;3.27;;;27.60;99.90;;;;;;5095562;28;20498;-74
2023/07/08 13:16:49;;;;;;;4.43;2.80;;;27.40;99.90;;;;;;5095397;28;20458;-71
2023/07/08 13:19:15;;;;;;;3.93;2.90;;;27.40;99.90;;;;;;5094334;28;20423;-69
2023/07/08 13:21:41;;;;;;;3.30;3.00;;;27.20;99.90;;;;;;5076044;28;20541;-70